Time;durP1;ratioP1;P1;durP2;ratioP2;P2;SDS_P1;SDS_P2;PMS_P1;PMS_P2;Temp;Humidity;BMP_temperature;BMP_pressure;BME280_temperature;BME280_humidity;BME280_pressure;Samples;Min_cycle;Max_cycle;Signal;HPM_P1;HPM_P2
2022/11/03 00:01:46;;;;;;;;;;;;;;;-143.48;62.86;78714.22;5029987;28;19909;-83
2022/11/03 00:04:12;;;;;;;;;;;;;;;-143.48;62.53;78722.16;5014787;28;19955;-83
2022/11/03 00:06:38;;;;;;;;;;;;;;;-143.48;62.47;78718.19;5030173;28;19909;-83
2022/11/03 00:09:04;;;;;;;;;;;;;;;-143.48;62.71;78732.09;5015076;28;19909;-83
2022/11/03 00:11:35;;;;;;;;;;;;;;;-143.48;62.86;78726.13;5014904;28;19960;-83
2022/11/03 00:14:01;;;;;;;;;;;;;;;-143.48;62.60;78720.19;5012822;28;19913;-82
2022/11/03 00:16:26;;;;;;;;;;;;;;;-143.48;62.62;78714.22;5012240;28;19938;-81
2022/11/03 00:18:51;;;;;;;;;;;;;;;-143.48;62.84;78712.25;5013638;28;20372;-83
2022/11/03 00:21:17;;;;;;;;;;;;;;;-143.48;62.92;78714.22;5014518;28;19920;-83
2022/11/03 00:23:43;;;;;;;;;;;;;;;-143.48;62.97;78710.25;5014811;28;19909;-83
2022/11/03 00:26:13;;;;;;;;;;;;;;;-143.48;62.84;78716.22;5013145;28;20411;-83
2022/11/03 00:28:39;;;;;;;;;;;;;;;-143.48;63.37;78716.22;5014473;28;19920;-83
2022/11/03 00:31:05;;;;;;;;;;;;;;;-143.48;63.56;78722.16;5014406;28;19910;-83
2022/11/03 00:33:31;;;;;;;;;;;;;;;-143.48;63.40;78724.16;5014305;28;19909;-82
2022/11/03 00:35:57;;;;;;;;;;;;;;;-143.48;63.26;78730.09;5013449;28;19920;-83
2022/11/03 00:38:22;;;;;;;;;;;;;;;-143.48;63.69;78726.13;5014303;28;19920;-83
2022/11/03 00:40:55;;;;;;;;;;;;;;;-143.48;63.69;78730.09;5013073;28;20002;-83
2022/11/03 00:43:22;;;;;;;;;;;;;;;-143.48;63.83;78726.13;5013425;28;19932;-83
2022/11/03 00:45:47;;;;;;;;;;;;;;;-143.48;63.91;78742.00;5014573;28;19913;-83
2022/11/03 00:48:28;;;;;;;;;;;;;;;-143.48;63.85;78738.03;5015290;28;19909;-82
2022/11/03 00:51:15;;;;;;;;;;;;;;;-143.48;64.10;78730.09;5013128;28;20028;-83
2022/11/03 00:53:47;;;;;;;;;;;;;;;-143.48;64.28;78745.97;5014330;28;19956;-83
2022/11/03 00:56:14;;;;;;;;;;;;;;;-143.48;64.17;78738.03;5014151;28;20001;-83
2022/11/03 00:58:40;;;;;;;;;;;;;;;-143.48;64.32;78734.06;5013253;28;19917;-83
2022/11/03 01:01:07;;;;;;;;;;;;;;;-143.48;64.26;78720.19;5013353;28;20317;-82
2022/11/03 01:03:33;;;;;;;;;;;;;;;-143.48;64.02;78714.22;5013428;28;19940;-83
2022/11/03 01:08:43;;;;;;;;;;;;;;;-143.48;63.96;78724.16;5013651;28;19920;-83
2022/11/03 01:13:53;;;;;;;;;;;;;;;-143.48;63.97;78718.19;5014563;28;19915;-83
2022/11/03 01:16:18;;;;;;;;;;;;;;;-143.48;63.92;78704.31;5014452;28;19913;-83
2022/11/03 01:18:43;;;;;;;;;;;;;;;-143.48;63.76;78702.31;5014251;28;19920;-83
2022/11/03 01:21:08;;;;;;;;;;;;;;;-143.48;63.81;78708.28;5029559;28;19949;-83
2022/11/03 01:23:34;;;;;;;;;;;;;;;-143.48;64.12;78704.31;5014205;28;19910;-82
2022/11/03 01:26:02;;;;;;;;;;;;;;;-143.48;63.76;78696.38;5014097;28;20372;-83
2022/11/03 01:28:28;;;;;;;;;;;;;;;-143.48;63.92;78694.41;5014233;28;19916;-83
2022/11/03 01:30:53;;;;;;;;;;;;;;;-143.48;64.20;78700.34;5014323;28;20348;-83
2022/11/03 01:33:18;;;;;;;;;;;;;;;-143.48;64.19;78696.38;5014281;28;19955;-83
2022/11/03 01:35:43;;;;;;;;;;;;;;;-143.48;64.44;78696.38;5014686;28;19909;-84
2022/11/03 01:38:11;;;;;;;;;;;;;;;-143.48;64.62;78688.44;5014217;28;20348;-83
2022/11/03 01:40:36;;;;;;;;;;;;;;;-143.48;64.64;78684.47;5013905;28;20003;-82
2022/11/03 01:43:18;;;;;;;;;;;;;;;-143.48;64.63;78674.56;5013906;28;19964;-83
2022/11/03 01:45:43;;;;;;;;;;;;;;;-143.48;64.69;78672.56;5014002;28;19909;-83
2022/11/03 01:48:10;;;;;;;;;;;;;;;-143.48;64.87;78674.56;5012976;28;19913;-82
2022/11/03 01:50:35;;;;;;;;;;;;;;;-143.48;65.08;78674.56;5028802;28;19924;-83
2022/11/03 01:53:00;;;;;;;;;;;;;;;-143.48;65.24;78674.56;5012671;28;19909;-83
2022/11/03 01:55:36;;;;;;;;;;;;;;;-143.48;65.29;78666.63;5012639;28;19959;-82
2022/11/03 01:58:04;;;;;;;;;;;;;;;-143.48;65.10;78668.59;5013951;28;19960;-83
2022/11/03 02:00:29;;;;;;;;;;;;;;;-143.48;65.59;78672.56;5013923;28;19916;-83
2022/11/03 02:02:55;;;;;;;;;;;;;;;-143.48;65.69;78668.59;5012701;28;19909;-83
2022/11/03 02:05:21;;;;;;;;;;;;;;;-143.48;65.92;78664.66;5013815;28;19932;-83
2022/11/03 02:07:47;;;;;;;;;;;;;;;-143.48;65.82;78660.69;5015161;28;20004;-82
2022/11/03 02:10:12;;;;;;;;;;;;;;;-143.48;65.94;78656.72;5015065;28;19948;-83
2022/11/03 02:12:38;;;;;;;;;;;;;;;-143.48;66.29;78656.72;5015347;28;19913;-83
2022/11/03 02:15:10;;;;;;;;;;;;;;;-143.48;66.41;78660.69;5014967;28;19973;-83
2022/11/03 02:17:36;;;;;;;;;;;;;;;-143.48;66.09;78656.72;5013658;28;19937;-83
2022/11/03 02:20:12;;;;;;;;;;;;;;;-143.48;66.26;78644.81;5013755;28;19909;-83
2022/11/03 02:22:44;;;;;;;;;;;;;;;-143.48;66.48;78646.78;5018396;28;19955;-83
2022/11/03 02:25:27;;;;;;;;;;;;;;;-143.48;66.72;78642.81;5018619;28;19920;-83
2022/11/03 02:27:53;;;;;;;;;;;;;;;-143.48;66.67;78646.78;5018661;28;19909;-82
2022/11/03 02:30:18;;;;;;;;;;;;;;;-143.48;66.57;78630.94;5017893;28;19914;-83
2022/11/03 02:33:03;;;;;;;;;;;;;;;-143.48;66.25;78623.00;5032666;28;19982;-83
2022/11/03 02:35:50;;;;;;;;;;;;;;;-143.48;66.78;78630.94;5006055;28;20043;-81
2022/11/03 02:38:18;;;;;;;;;;;;;;;-143.48;66.84;78626.97;5018332;28;20008;-83
2022/11/03 02:40:49;;;;;;;;;;;;;;;-143.48;66.85;78605.16;5033350;28;19909;-82
2022/11/03 02:43:16;;;;;;;;;;;;;;;-143.48;66.91;78609.09;5017701;28;19952;-83
2022/11/03 02:45:42;;;;;;;;;;;;;;;-143.48;67.00;78607.13;5017184;28;19909;-83
2022/11/03 02:48:08;;;;;;;;;;;;;;;-143.48;67.11;78595.22;5017724;28;19909;-83
2022/11/03 02:50:34;;;;;;;;;;;;;;;-143.48;67.46;78597.22;5016337;28;20288;-82
2022/11/03 02:52:59;;;;;;;;;;;;;;;-143.48;67.35;78589.28;5032770;28;19999;-83
2022/11/03 02:55:38;;;;;;;;;;;;;;;-143.48;67.26;78575.41;5018311;28;19992;-83
2022/11/03 02:58:10;;;;;;;;;;;;;;;-143.48;67.50;78593.25;5017486;28;20379;-84
2022/11/03 03:00:40;;;;;;;;;;;;;;;-143.48;67.60;78587.28;5017788;28;19909;-83
2022/11/03 03:03:13;;;;;;;;;;;;;;;-143.48;67.76;78583.31;5016808;28;19909;-83
2022/11/03 03:05:39;;;;;;;;;;;;;;;-143.48;67.97;78581.34;5017683;28;19936;-83
2022/11/03 03:08:07;;;;;;;;;;;;;;;-143.48;68.23;78591.25;5017932;28;20032;-83
2022/11/03 03:10:37;;;;;;;;;;;;;;;-143.48;68.08;78577.38;5016523;28;19960;-82
2022/11/03 03:13:03;;;;;;;;;;;;;;;-143.48;68.55;78583.31;5017227;28;19909;-83
2022/11/03 03:15:41;;;;;;;;;;;;;;;-143.48;68.60;78573.41;5016125;28;19963;-83
2022/11/03 03:18:22;;;;;;;;;;;;;;;-143.48;68.28;78561.50;5017343;28;19917;-85
2022/11/03 03:20:53;;;;;;;;;;;;;;;-143.48;68.16;78553.56;5017770;28;19917;-83
2022/11/03 03:23:20;;;;;;;;;;;;;;;-143.48;68.21;78543.66;5015774;28;20004;-83
2022/11/03 03:25:48;;;;;;;;;;;;;;;-143.48;68.43;78539.69;5016108;28;19959;-84
2022/11/03 03:28:16;;;;;;;;;;;;;;;-143.48;68.62;78531.75;5017294;28;20008;-83
2022/11/03 03:30:42;;;;;;;;;;;;;;;-143.48;68.77;78539.69;5017110;28;20014;-84
2022/11/03 03:33:08;;;;;;;;;;;;;;;-143.48;68.34;78531.75;5016301;28;19916;-83
2022/11/03 03:35:36;;;;;;;;;;;;;;;-143.48;68.67;78527.78;5017362;28;19910;-84
2022/11/03 03:38:04;;;;;;;;;;;;;;;-143.48;68.50;78513.91;5015698;28;19955;-85
2022/11/03 03:40:32;;;;;;;;;;;;;;;-143.48;68.38;78504.00;5017114;28;19920;-83
2022/11/03 03:42:57;;;;;;;;;;;;;;;-143.48;68.66;78496.06;5032320;28;20406;-83
2022/11/03 03:45:24;;;;;;;;;;;;;;;-143.48;68.97;78494.06;5014260;28;20008;-82
2022/11/03 03:47:49;;;;;;;;;;;;;;;-143.48;68.89;78488.13;5017164;28;19920;-83
2022/11/03 03:50:15;;;;;;;;;;;;;;;-143.48;69.35;78504.00;5031904;28;19918;-84
2022/11/03 03:52:40;;;;;;;;;;;;;;;-143.48;69.30;78507.97;5015441;28;19932;-83
2022/11/03 03:55:09;;;;;;;;;;;;;;;-143.48;69.04;78484.16;5016946;28;19909;-83
2022/11/03 03:57:34;;;;;;;;;;;;;;;-143.48;69.22;78480.19;5015666;28;20012;-84
2022/11/03 03:59:59;;;;;;;;;;;;;;;-143.48;69.33;78488.13;5015487;28;19963;-85
2022/11/03 04:02:25;;;;;;;;;;;;;;;-143.48;69.44;78480.19;5016579;28;19916;-83
2022/11/03 04:04:50;;;;;;;;;;;;;;;-143.48;68.97;78470.28;5014926;28;19909;-83
2022/11/03 04:09:58;;;;;;;;;;;;;;;-143.48;69.30;78474.25;5016742;28;19936;-84
2022/11/03 04:23:23;;;;;;;;;;;;;;;-143.48;69.16;78456.41;5016587;28;19975;-84
2022/11/03 04:25:53;;;;;;;;;;;;;;;-143.48;69.67;78460.38;5031748;28;19913;-83
2022/11/03 04:28:18;;;;;;;;;;;;;;;-143.48;69.59;78450.44;5016157;28;20312;-84
2022/11/03 04:30:43;;;;;;;;;;;;;;;-143.48;69.34;78430.63;5016189;28;19909;-84
2022/11/03 04:33:18;;;;;;;;;;;;;;;-143.48;69.55;78438.53;5031755;28;19967;-84
2022/11/03 04:35:45;;;;;;;;;;;;;;;-143.48;69.52;78446.47;5015911;28;20293;-84
2022/11/03 04:38:13;;;;;;;;;;;;;;;-143.48;69.83;78444.50;5031028;28;20024;-83
2022/11/03 04:40:40;;;;;;;;;;;;;;;-143.48;70.07;78446.47;5031361;28;20297;-85
2022/11/03 04:43:16;;;;;;;;;;;;;;;-143.48;70.12;78436.56;4998004;28;19921;-83
2022/11/03 04:45:45;;;;;;;;;;;;;;;-143.48;69.99;78432.59;5031546;28;20004;-83
2022/11/03 04:48:17;;;;;;;;;;;;;;;-143.48;70.20;78446.47;5014462;28;20431;-83
2022/11/03 04:50:44;;;;;;;;;;;;;;;-143.48;70.33;78450.44;5014508;28;19921;-84
2022/11/03 04:53:11;;;;;;;;;;;;;;;-143.48;70.07;78438.53;5014523;28;19941;-83
2022/11/03 04:55:38;;;;;;;;;;;;;;;-143.48;70.50;78446.47;5014193;28;19947;-83
2022/11/03 04:58:10;;;;;;;;;;;;;;;-143.48;70.74;78450.44;5014270;28;19935;-81
2022/11/03 05:00:35;;;;;;;;;;;;;;;-143.48;70.56;78432.59;5013667;28;20360;-83
2022/11/03 05:03:00;;;;;;;;;;;;;;;-143.48;71.08;78450.44;5030248;28;19917;-83
2022/11/03 05:05:25;;;;;;;;;;;;;;;-143.48;71.06;78444.50;5015399;28;19996;-84
2022/11/03 05:07:52;;;;;;;;;;;;;;;-143.48;70.76;78434.59;5015156;28;19909;-82
2022/11/03 05:10:19;;;;;;;;;;;;;;;-143.48;71.14;78432.59;5015361;28;19932;-85
2022/11/03 05:12:46;;;;;;;;;;;;;;;-143.48;71.47;78438.53;5014474;28;19916;-83
2022/11/03 05:15:30;;;;;;;;;;;;;;;-143.48;71.58;78432.59;5015783;28;19909;-85
2022/11/03 05:17:55;;;;;;;;;;;;;;;-143.48;71.61;78420.69;5015338;28;20327;-83
2022/11/03 05:20:38;;;;;;;;;;;;;;;-143.48;71.47;78426.66;5015698;28;20000;-84
2022/11/03 05:23:04;;;;;;;;;;;;;;;-143.48;71.61;78412.75;4998008;28;19966;-84
2022/11/03 05:25:32;;;;;;;;;;;;;;;-143.48;71.39;78400.88;5015579;28;19988;-84
2022/11/03 05:27:58;;;;;;;;;;;;;;;-143.48;71.17;78394.91;5030872;28;19913;-83
2022/11/03 05:30:23;;;;;;;;;;;;;;;-143.48;71.62;78394.91;5014006;28;19910;-84
2022/11/03 05:32:48;;;;;;;;;;;;;;;-143.48;71.58;78392.94;5015783;28;19913;-82
2022/11/03 05:35:21;;;;;;;;;;;;;;;-143.48;71.22;78386.97;5030735;28;19913;-83
2022/11/03 05:37:46;;;;;;;;;;;;;;;-143.48;71.28;78379.06;5015564;28;19917;-83
2022/11/03 05:40:22;;;;;;;;;;;;;;;-143.48;71.63;78381.03;5030491;28;19924;-82
2022/11/03 05:42:53;;;;;;;;;;;;;;;-143.48;71.47;78388.97;5015481;28;19909;-84
2022/11/03 05:45:32;;;;;;;;;;;;;;;-143.48;71.81;78385.00;5015122;28;19909;-83
2022/11/03 05:47:58;;;;;;;;;;;;;;;-143.48;71.73;78373.09;5015480;28;19910;-83
2022/11/03 05:50:24;;;;;;;;;;;;;;;-143.48;71.70;78367.16;5015082;28;19918;-83
2022/11/03 05:52:50;;;;;;;;;;;;;;;-143.48;71.54;78369.13;5030580;28;20011;-84
2022/11/03 05:55:29;;;;;;;;;;;;;;;-143.48;72.27;78379.06;5014534;28;19921;-83
2022/11/03 05:57:56;;;;;;;;;;;;;;;-143.48;72.37;78373.09;5019113;28;19921;-83
2022/11/03 06:00:26;;;;;;;;;;;;;;;-143.48;72.48;78363.19;5018233;28;19909;-82
2022/11/03 06:02:52;;;;;;;;;;;;;;;-143.48;72.51;78365.16;5018372;28;19916;-82
2022/11/03 06:05:20;;;;;;;;;;;;;;;-143.48;72.29;78355.25;5018847;28;19909;-83
2022/11/03 06:07:45;;;;;;;;;;;;;;;-143.48;72.11;78367.16;5018657;28;20390;-83
2022/11/03 06:10:27;;;;;;;;;;;;;;;-143.48;72.40;78351.28;5018920;28;19996;-83
2022/11/03 06:12:57;;;;;;;;;;;;;;;-143.48;72.12;78335.41;5033963;28;20330;-83
2022/11/03 06:15:28;;;;;;;;;;;;;;;-143.48;72.37;78345.34;5018837;28;20004;-83
2022/11/03 06:17:53;;;;;;;;;;;;;;;-143.48;72.31;78337.41;5017941;28;20004;-83
2022/11/03 06:20:20;;;;;;;;;;;;;;;-143.48;72.66;78339.38;5018626;28;20407;-84
2022/11/03 06:22:47;;;;;;;;;;;;;;;-143.48;72.48;78343.34;5017363;28;19919;-84
2022/11/03 06:25:19;;;;;;;;;;;;;;;-143.48;72.69;78327.50;5017446;28;19909;-83
2022/11/03 06:27:45;;;;;;;;;;;;;;;-143.48;72.63;78331.44;5033282;28;20344;-82
2022/11/03 06:30:22;;;;;;;;;;;;;;;-143.48;72.59;78319.56;5016941;28;20005;-83
2022/11/03 06:32:48;;;;;;;;;;;;;;;-143.48;72.71;78319.56;5018252;28;19968;-84
2022/11/03 06:35:13;;;;;;;;;;;;;;;-143.48;72.71;78315.59;5019318;28;19909;-84
2022/11/03 06:37:40;;;;;;;;;;;;;;;-143.48;72.67;78313.59;5017229;28;19918;-83
2022/11/03 06:40:08;;;;;;;;;;;;;;;-143.48;72.64;78309.63;5017979;28;19959;-83
2022/11/03 06:42:33;;;;;;;;;;;;;;;-143.48;73.02;78311.63;5018799;28;19924;-83
2022/11/03 06:45:00;;;;;;;;;;;;;;;-143.48;72.99;78307.66;5018336;28;19913;-84
2022/11/03 06:47:27;;;;;;;;;;;;;;;-143.48;73.16;78301.72;5017127;28;19912;-83
2022/11/03 06:49:54;;;;;;;;;;;;;;;-143.48;73.06;78305.66;5016082;28;19968;-84
2022/11/03 06:52:27;;;;;;;;;;;;;;;-143.48;73.32;78297.75;5017459;28;19913;-84
2022/11/03 06:55:12;;;;;;;;;;;;;;;-143.48;73.17;78295.75;5017640;28;19913;-83
2022/11/03 06:57:38;;;;;;;;;;;;;;;-143.48;72.96;78291.78;5015867;28;19917;-84
2022/11/03 07:00:16;;;;;;;;;;;;;;;-143.48;72.90;78287.81;5017486;28;19924;-82
2022/11/03 07:02:56;;;;;;;;;;;;;;;-143.48;72.83;78279.88;5031943;28;19917;-83
2022/11/03 07:05:25;;;;;;;;;;;;;;;-143.48;72.90;78277.91;5017107;28;19928;-85
2022/11/03 07:07:53;;;;;;;;;;;;;;;-143.48;72.94;78277.91;4999054;28;19976;-84
2022/11/03 07:10:18;;;;;;;;;;;;;;;-143.48;72.93;78285.84;5014575;28;20388;-82
2022/11/03 07:12:43;;;;;;;;;;;;;;;-143.48;73.19;78277.91;5017046;28;19954;-83
2022/11/03 07:15:19;;;;;;;;;;;;;;;-143.48;73.05;78273.94;5017198;28;19963;-83
2022/11/03 07:17:44;;;;;;;;;;;;;;;-143.48;72.80;78262.03;4998862;28;19917;-83
2022/11/03 07:20:14;;;;;;;;;;;;;;;-143.48;72.79;78266.00;5018682;28;19955;-83
2022/11/03 07:22:42;;;;;;;;;;;;;;;-143.48;72.85;78262.03;5017328;28;19909;-81
2022/11/03 07:25:12;;;;;;;;;;;;;;;-143.48;72.96;78260.06;5018062;28;19915;-82
2022/11/03 07:27:39;;;;;;;;;;;;;;;-143.48;72.67;78258.06;5013902;28;20361;-83
2022/11/03 07:30:07;;;;;;;;;;;;;;;-143.48;73.19;78262.03;5017280;28;19916;-83
2022/11/03 07:32:33;;;;;;;;;;;;;;;-143.48;73.10;78269.97;5031958;28;19909;-83
2022/11/03 07:35:24;;;;;;;;;;;;;;;-143.48;72.82;78252.13;5015785;28;19915;-82
2022/11/03 07:37:50;;;;;;;;;;;;;;;-143.48;72.90;78246.19;5016989;28;20261;-83
2022/11/03 07:40:23;;;;;;;;;;;;;;;-143.48;72.71;78238.25;5015916;28;19918;-83
2022/11/03 07:42:49;;;;;;;;;;;;;;;-143.48;73.08;78246.19;5016546;28;19909;-83
2022/11/03 07:45:32;;;;;;;;;;;;;;;-143.48;72.42;78228.31;5016132;28;19963;-84
2022/11/03 07:47:58;;;;;;;;;;;;;;;-143.48;73.04;78234.28;5031963;28;19956;-83
2022/11/03 07:50:24;;;;;;;;;;;;;;;-143.48;72.60;78230.31;5031665;28;19917;-83
2022/11/03 07:52:49;;;;;;;;;;;;;;;-143.48;73.05;78244.19;5018098;28;20387;-86
2022/11/03 07:55:14;;;;;;;;;;;;;;;-143.48;73.48;78246.19;5017703;28;19913;-84
2022/11/03 07:57:39;;;;;;;;;;;;;;;-143.48;73.69;78244.19;5000428;28;20296;-83
2022/11/03 08:00:06;;;;;;;;;;;;;;;-143.48;73.39;78232.28;5018039;28;19910;-84
2022/11/03 08:02:33;;;;;;;;;;;;;;;-143.48;73.51;78226.34;5018290;28;20000;-83
2022/11/03 08:04:59;;;;;;;;;;;;;;;-143.48;73.55;78230.31;5015923;28;19916;-84
2022/11/03 08:07:24;;;;;;;;;;;;;;;-143.48;73.48;78212.47;5015130;28;19909;-83
2022/11/03 08:09:49;;;;;;;;;;;;;;;-143.48;73.44;78206.50;5015964;28;19909;-83
2022/11/03 08:12:15;;;;;;;;;;;;;;;-143.48;73.33;78202.56;5017047;28;20008;-84
2022/11/03 08:14:40;;;;;;;;;;;;;;;-143.48;72.88;78182.72;5015329;28;20319;-81
2022/11/03 08:17:05;;;;;;;;;;;;;;;-143.48;72.91;78186.69;5017074;28;19913;-84
2022/11/03 08:19:30;;;;;;;;;;;;;;;-143.48;72.80;78184.69;5015723;28;20284;-83
2022/11/03 08:21:55;;;;;;;;;;;;;;;-143.48;73.14;78184.69;5016899;28;19924;-84
2022/11/03 08:24:21;;;;;;;;;;;;;;;-143.48;72.78;78172.81;5015567;28;19982;-83
2022/11/03 08:26:46;;;;;;;;;;;;;;;-143.48;72.91;78164.88;5016323;28;19916;-84
2022/11/03 08:29:11;;;;;;;;;;;;;;;-143.48;72.75;78158.91;5016101;28;20364;-84
2022/11/03 08:31:36;;;;;;;;;;;;;;;-143.48;72.57;78147.03;5015214;28;19952;-83
2022/11/03 08:34:01;;;;;;;;;;;;;;;-143.48;72.64;78147.03;5015589;28;19913;-83
2022/11/03 08:36:27;;;;;;;;;;;;;;;-143.48;72.65;78129.16;5013438;28;19944;-81
2022/11/03 08:38:52;;;;;;;;;;;;;;;-143.48;72.48;78125.22;4997470;28;19917;-84
2022/11/03 08:41:17;;;;;;;;;;;;;;;-143.48;72.10;78105.38;5015421;28;19915;-82
2022/11/03 08:43:42;;;;;;;;;;;;;;;-143.48;72.03;78107.34;5014626;28;19909;-82
2022/11/03 08:46:07;;;;;;;;;;;;;;;-143.48;71.81;78099.44;5014881;28;19958;-82
2022/11/03 08:48:32;;;;;;;;;;;;;;;-143.48;72.00;78095.47;5015766;28;19941;-81
2022/11/03 08:50:58;;;;;;;;;;;;;;;-143.48;71.58;78085.53;5015422;28;19917;-82
2022/11/03 08:53:24;;;;;;;;;;;;;;;-143.48;71.77;78099.44;5015751;28;19909;-82
2022/11/03 08:55:50;;;;;;;;;;;;;;;-143.48;71.66;78089.50;5014245;28;19921;-81
2022/11/03 08:58:15;;;;;;;;;;;;;;;-143.48;71.12;78059.75;5015206;28;19913;-82
2022/11/03 09:00:40;;;;;;;;;;;;;;;-143.48;70.99;78057.78;4996917;28;19959;-82
2022/11/03 09:03:05;;;;;;;;;;;;;;;-143.48;70.57;78059.75;5013838;28;19953;-82
2022/11/03 09:05:31;;;;;;;;;;;;;;;-143.48;70.81;78045.88;5014800;28;19916;-82
2022/11/03 09:07:56;;;;;;;;;;;;;;;-143.48;70.36;78035.97;5015324;28;19955;-81
2022/11/03 09:10:21;;;;;;;;;;;;;;;-143.48;69.22;78012.16;5014916;28;19909;-82
2022/11/03 09:12:46;;;;;;;;;;;;;;;-143.48;68.59;77990.34;5014617;28;19952;-82
2022/11/03 09:15:11;;;;;;;;;;;;;;;-143.48;69.08;78006.22;5014882;28;19977;-81
2022/11/03 09:17:37;;;;;;;;;;;;;;;-143.48;68.83;77980.44;5014833;28;19938;-81
2022/11/03 09:20:03;;;;;;;;;;;;;;;-143.48;68.88;77980.44;5014397;28;19909;-81
2022/11/03 09:22:28;;;;;;;;;;;;;;;-143.48;68.85;77996.31;5013237;28;19913;-82
2022/11/03 09:24:53;;;;;;;;;;;;;;;-143.48;67.83;77956.66;5029483;28;19916;-81
2022/11/03 09:27:18;;;;;;;;;;;;;;;-143.48;67.83;77964.56;5015194;28;19940;-82
2022/11/03 09:29:44;;;;;;;;;;;;;;;-143.48;67.88;77960.63;5017493;28;19909;-82
2022/11/03 09:32:09;;;;;;;;;;;;;;;-143.48;68.39;77974.50;5019018;28;19913;-82
2022/11/03 09:34:34;;;;;;;;;;;;;;;-143.48;67.80;77942.78;5019132;28;19916;-82
2022/11/03 09:37:00;;;;;;;;;;;;;;;-143.48;67.68;77940.78;5019313;28;20272;-81
2022/11/03 09:39:25;;;;;;;;;;;;;;;-143.48;67.02;77932.84;5033716;28;19913;-82
2022/11/03 09:41:51;;;;;;;;;;;;;;;-143.48;66.89;77917.00;5018784;28;19909;-82
2022/11/03 09:44:16;;;;;;;;;;;;;;;-143.48;66.80;77926.91;5034186;28;20361;-82
2022/11/03 09:46:41;;;;;;;;;;;;;;;-143.48;67.07;77946.72;5020525;28;19923;-83
2022/11/03 09:49:07;;;;;;;;;;;;;;;-143.48;66.83;77909.06;5039244;28;19909;-81
2022/11/03 09:51:33;;;;;;;;;;;;;;;-143.48;66.44;77928.88;5033436;28;19921;-82
2022/11/03 09:54:02;;;;;;;;;;;;;;;-143.48;65.93;77893.19;5018245;28;19921;-81
2022/11/03 09:56:28;;;;;;;;;;;;;;;-143.48;66.32;77909.06;5018633;28;19920;-82
2022/11/03 09:58:53;;;;;;;;;;;;;;;-143.48;65.48;77897.16;5017508;28;19913;-83
2022/11/03 10:01:18;;;;;;;;;;;;;;;-143.48;65.64;77893.19;5033406;28;19917;-82
2022/11/03 10:03:43;;;;;;;;;;;;;;;-143.48;64.95;77877.31;5017934;28;19910;-82
2022/11/03 10:06:09;;;;;;;;;;;;;;;-143.48;65.01;77875.34;5017990;28;19936;-82
2022/11/03 10:08:36;;;;;;;;;;;;;;;-143.48;64.69;77877.31;5017220;28;19909;-81
2022/11/03 10:11:01;;;;;;;;;;;;;;;-143.48;64.62;77875.34;5018478;28;19917;-79
2022/11/03 10:13:26;;;;;;;;;;;;;;;-143.48;64.89;77881.28;5016793;28;19909;-82
2022/11/03 10:15:52;;;;;;;;;;;;;;;-143.48;64.94;77881.28;5034749;28;19960;-82
2022/11/03 10:18:17;;;;;;;;;;;;;;;-143.48;64.47;77877.31;5017991;28;20368;-82
2022/11/03 10:20:43;;;;;;;;;;;;;;;-143.48;64.56;77873.38;5017142;28;19909;-82
2022/11/03 10:23:09;;;;;;;;;;;;;;;-143.48;64.41;77881.28;5017069;28;19913;-82
2022/11/03 10:25:35;;;;;;;;;;;;;;;-143.48;64.27;77865.44;5017921;28;19913;-82
2022/11/03 10:28:10;;;;;;;;;;;;;;;-143.48;64.09;77847.59;5018003;28;19944;-81
2022/11/03 10:30:46;;;;;;;;;;;;;;;-143.48;63.88;77841.63;5017458;28;19924;-81
2022/11/03 10:33:23;;;;;;;;;;;;;;;-143.48;63.57;77843.63;5016767;28;19981;-82
2022/11/03 10:35:48;;;;;;;;;;;;;;;-143.48;63.26;77825.78;5017948;28;20020;-81
2022/11/03 10:38:27;;;;;;;;;;;;;;;-143.48;63.42;77823.78;5018054;28;20292;-82
2022/11/03 10:40:53;;;;;;;;;;;;;;;-143.48;63.37;77825.78;5017472;28;19945;-82
2022/11/03 10:43:18;;;;;;;;;;;;;;;-143.48;62.97;77813.88;5032904;28;19971;-83
2022/11/03 10:45:43;;;;;;;;;;;;;;;-143.48;62.85;77803.97;5017848;28;19909;-82
2022/11/03 10:48:09;;;;;;;;;;;;;;;-143.48;62.09;77794.03;5015929;28;19936;-83
2022/11/03 10:50:34;;;;;;;;;;;;;;;-143.48;62.17;77790.06;5017527;28;19964;-82
2022/11/03 10:53:00;;;;;;;;;;;;;;;-143.48;61.98;77778.19;5015656;28;19913;-81
2022/11/03 10:55:26;;;;;;;;;;;;;;;-143.48;61.72;77768.25;5017101;28;19909;-81
2022/11/03 10:57:54;;;;;;;;;;;;;;;-143.48;61.50;77754.38;5017274;28;19913;-81
2022/11/03 11:00:19;;;;;;;;;;;;;;;-143.48;61.48;77742.50;5017191;28;20013;-80
2022/11/03 11:02:46;;;;;;;;;;;;;;;-143.48;61.13;77740.50;5017806;28;19957;-81
2022/11/03 11:05:19;;;;;;;;;;;;;;;-143.48;61.71;77762.31;5016427;28;19917;-82
2022/11/03 11:07:44;;;;;;;;;;;;;;;-143.48;61.58;77746.44;5018090;28;19910;-81
2022/11/03 11:10:10;;;;;;;;;;;;;;;-143.48;61.49;77726.63;5000860;28;19988;-82
2022/11/03 11:12:35;;;;;;;;;;;;;;;-143.48;60.95;77722.66;5034403;28;19909;-82
2022/11/03 11:15:05;;;;;;;;;;;;;;;-143.48;61.26;77718.69;5017908;28;19910;-82
2022/11/03 11:17:38;;;;;;;;;;;;;;;-143.48;60.78;77702.84;5018414;28;19917;-81
2022/11/03 11:20:22;;;;;;;;;;;;;;;-143.48;60.38;77704.81;5017973;28;19909;-81
2022/11/03 11:22:48;;;;;;;;;;;;;;;-143.48;60.11;77696.88;5034837;28;19916;-81
2022/11/03 11:25:14;;;;;;;;;;;;;;;-143.48;60.31;77704.81;5016609;28;20004;-81
2022/11/03 11:27:42;;;;;;;;;;;;;;;-143.48;60.54;77702.84;5017405;28;19913;-81
2022/11/03 11:30:19;;;;;;;;;;;;;;;-143.48;60.43;77712.75;5034638;28;19909;-81
2022/11/03 11:32:44;;;;;;;;;;;;;;;-143.48;60.02;77686.97;5033760;28;19909;-81
2022/11/03 11:35:10;;;;;;;;;;;;;;;-143.48;59.83;77684.97;5018080;28;19932;-80
2022/11/03 11:37:37;;;;;;;;;;;;;;;-143.48;59.39;77679.03;5018092;28;19917;-81
2022/11/03 11:40:10;;;;;;;;;;;;;;;-143.48;59.28;77647.31;5016171;28;19932;-80
2022/11/03 11:42:55;;;;;;;;;;;;;;;-143.48;58.69;77619.56;4998476;28;20373;-81
2022/11/03 11:45:40;;;;;;;;;;;;;;;-143.48;57.37;77591.78;5016698;28;19913;-81
2022/11/03 11:48:16;;;;;;;;;;;;;;;-143.48;56.97;77579.91;5016501;28;19932;-81
2022/11/03 11:50:41;;;;;;;;;;;;;;;-143.48;57.48;77591.78;5017284;28;20388;-81
2022/11/03 11:53:06;;;;;;;;;;;;;;;-143.48;58.38;77613.59;5030862;28;19918;-81
2022/11/03 11:55:44;;;;;;;;;;;;;;;-143.48;58.67;77601.72;5031470;28;19917;-81
2022/11/03 11:58:21;;;;;;;;;;;;;;;-143.48;58.15;77577.91;5030615;28;19957;-81
2022/11/03 12:00:58;;;;;;;;;;;;;;;-143.48;58.56;77609.63;5016799;28;20044;-81
2022/11/03 12:03:26;;;;;;;;;;;;;;;-143.48;57.45;77569.97;5015997;28;19944;-81
2022/11/03 12:05:51;;;;;;;;;;;;;;;-143.48;57.16;77550.16;5018158;28;20280;-81
2022/11/03 12:08:17;;;;;;;;;;;;;;;-143.48;56.67;77534.28;5018103;28;19909;-80
2022/11/03 12:10:51;;;;;;;;;;;;;;;-143.48;56.41;77522.38;5015626;28;19910;-81
2022/11/03 12:13:34;;;;;;;;;;;;;;;-143.48;56.17;77516.44;5015589;28;20026;-81
2022/11/03 12:16:06;;;;;;;;;;;;;;;-143.48;56.16;77516.44;5105375;27;1945542;-30
2022/11/03 12:18:39;;;;;;;;;;;;;;;-143.48;56.22;77534.28;5174111;27;20002;-30
2022/11/03 12:21:14;;;;;;;;;;;;;;;-143.48;56.49;77520.41;5155737;27;19966;-30
2022/11/03 12:23:41;;;;;;;;;;;;;;;-143.48;55.63;77516.44;5174088;27;19911;-30
2022/11/03 12:26:24;;;;;;;;;;;;;;;-143.48;55.52;77524.38;5173968;27;20305;-30
2022/11/03 12:28:50;;;;;;;;;;;;;;;-143.48;55.52;77488.69;5174122;27;19959;-30
2022/11/03 12:31:16;;;;;;;;;;;;;;;-143.48;55.36;77480.75;5154719;27;20262;-30
2022/11/03 12:33:41;;;;;;;;;;;;;;;-143.48;55.23;77496.63;5173473;27;19915;-30
2022/11/03 12:36:07;;;;;;;;;;;;;;;-143.48;55.71;77506.53;5174128;27;19960;-30
2022/11/03 12:38:32;;;;;;;;;;;;;;;-143.48;56.32;77518.44;5173419;27;20349;-30
2022/11/03 12:41:19;;;;;;;;;;;;;;;-143.48;56.00;77506.53;5173612;27;19958;-30
2022/11/03 12:43:42;;;;;;;;;;;;;;;-143.48;56.64;77532.31;5173112;27;19960;-30
2022/11/03 12:46:08;;;;;;;;;;;;;;;-143.48;57.03;77508.50;5173187;27;19915;-30
2022/11/03 12:48:33;;;;;;;;;;;;;;;-143.48;56.57;77514.47;5173592;27;19911;-30
2022/11/03 12:50:58;;;;;;;;;;;;;;;-143.48;56.75;77512.47;5173896;27;19919;-32